Lackawanna, New York
Current Conditions -  °F | °C
As of 8:54 AM on Thursday 30 Oct 2014 (Local Time) from KBUF Reporting Station
Few Clouds Few Clouds  
Wind Chill: 42°   Ceiling: Unl
Heat Index: 42°   Visibility: 10mi
Dew Point: 37°   Wind: 3mph
Humidity: 82%   Direction: 260°W
Pressure: 30.07"   Gusts: NA
Location:  42.83°N, 78.82°W
Report Text: KBUF 301254Z 26003KT 10SM FEW018 FEW033 FEW065 06/03 A3007 RMK AO2 SLP187 T00560028
Loading
Personal Weather Stations






























Interactive Weather Map
Tropical Storm Tracking
New forecast layout! Learn more

10-Day Weather Forecast

Advertisements
Track Severe Weather on mobile